RA601 UUWW-UUDD
Flight info
| Callsign | RA601 |
|---|---|
| Flight time | 0h 29m |
| Altitude | 1500 |
| Route | ULGIV/K0309F080 DCT DUZZU DCT LUTGE/K0307F070 DCT UMDUS DCT ESEBE DCT SAGVE DCT OKPUV DCT EMBOG DCT TRIAR DCT ELLEZ DCT NAGGO DCT GEKLA DCT OZFUR |
| Aircraft | DA62/L-SDFGRY/C |
Departure
| Time | 2026-05-06 14:04 |
|---|---|
| Airport | Vnukovo International Airport (UUWW) |
Arrival
| Time | 2026-05-06 14:33 |
|---|---|
| Airport | Domodedovo International Airport (UUDD) |
| Time | Latitude | Longitude | Altitude | Speed | Heading |
|---|---|---|---|---|---|
| 2026-05-06 13:42 | 55.60117 | 37.28708 | 675 ft | 0 kts | 314° |
| 2026-05-06 13:45 | 55.59873 | 37.28209 | 674 ft | 0 kts | 174° |
| 2026-05-06 13:57 | 55.59860 | 37.28274 | 674 ft | 12 kts | 69° |
| 2026-05-06 13:57 | 55.59899 | 37.28334 | 674 ft | 7 kts | 353° |
| 2026-05-06 13:57 | 55.59967 | 37.28323 | 674 ft | 18 kts | 359° |
| 2026-05-06 13:57 | 55.60089 | 37.28348 | 674 ft | 15 kts | 38° |
| 2026-05-06 13:58 | 55.60146 | 37.28457 | 674 ft | 11 kts | 23° |
| 2026-05-06 13:58 | 55.60193 | 37.28558 | 674 ft | 12 kts | 81° |
| 2026-05-06 13:58 | 55.60210 | 37.28715 | 674 ft | 8 kts | 122° |
| 2026-05-06 13:58 | 55.60208 | 37.28719 | 674 ft | 0 kts | 135° |
| 2026-05-06 13:59 | 55.60200 | 37.28733 | 674 ft | 9 kts | 135° |
| 2026-05-06 13:59 | 55.60140 | 37.28827 | 674 ft | 0 kts | 144° |
| 2026-05-06 13:59 | 55.60138 | 37.28830 | 674 ft | 6 kts | 144° |
| 2026-05-06 14:00 | 55.60025 | 37.28908 | 677 ft | 19 kts | 166° |
| 2026-05-06 14:00 | 55.60004 | 37.28917 | 679 ft | 0 kts | 166° |
| 2026-05-06 14:01 | 55.60003 | 37.28917 | 679 ft | 3 kts | 166° |
| 2026-05-06 14:01 | 55.59876 | 37.28970 | 683 ft | 31 kts | 168° |
| 2026-05-06 14:02 | 55.59785 | 37.28958 | 686 ft | 0 kts | 246° |
| 2026-05-06 14:02 | 55.59736 | 37.28728 | 684 ft | 51 kts | 248° |
| 2026-05-06 14:02 | 55.59545 | 37.27871 | 679 ft | 93 kts | 251° |
| 2026-05-06 14:02 | 55.59262 | 37.26716 | 774 ft | 111 kts | 251° |
| 2026-05-06 14:03 | 55.59006 | 37.25342 | 824 ft | 123 kts | 265° |
| 2026-05-06 14:03 | 55.59295 | 37.23934 | 937 ft | 125 kts | 306° |
| 2026-05-06 14:03 | 55.60026 | 37.23105 | 1047 ft | 129 kts | 343° |
| 2026-05-06 14:03 | 55.60926 | 37.23295 | 1162 ft | 136 kts | 24° |
| 2026-05-06 14:04 | 55.61585 | 37.24518 | 1287 ft | 144 kts | 59° |
| 2026-05-06 14:04 | 55.62034 | 37.26094 | 1424 ft | 148 kts | 60° |
| 2026-05-06 14:04 | 55.62510 | 37.27741 | 1493 ft | 154 kts | 57° |
| 2026-05-06 14:04 | 55.63023 | 37.29432 | 1507 ft | 157 kts | 58° |
| 2026-05-06 14:05 | 55.63515 | 37.31163 | 1502 ft | 159 kts | 62° |
| 2026-05-06 14:05 | 55.64032 | 37.32865 | 1503 ft | 157 kts | 57° |
| 2026-05-06 14:05 | 55.64564 | 37.34600 | 1502 ft | 162 kts | 59° |
| 2026-05-06 14:05 | 55.65078 | 37.36341 | 1499 ft | 156 kts | 59° |
| 2026-05-06 14:06 | 55.65587 | 37.38040 | 1499 ft | 158 kts | 56° |
| 2026-05-06 14:06 | 55.66114 | 37.39762 | 1492 ft | 158 kts | 53° |
| 2026-05-06 14:06 | 55.66907 | 37.41043 | 1485 ft | 152 kts | 25° |
| 2026-05-06 14:06 | 55.67900 | 37.41572 | 1480 ft | 148 kts | 359° |
| 2026-05-06 14:07 | 55.68893 | 37.41317 | 1485 ft | 143 kts | 335° |
| 2026-05-06 14:07 | 55.69789 | 37.40608 | 1494 ft | 140 kts | 331° |
| 2026-05-06 14:07 | 55.70663 | 37.39918 | 1562 ft | 136 kts | 332° |
| 2026-05-06 14:07 | 55.71512 | 37.39253 | 1685 ft | 131 kts | 330° |
| 2026-05-06 14:08 | 55.72338 | 37.38600 | 1809 ft | 129 kts | 330° |
| 2026-05-06 14:08 | 55.73220 | 37.38209 | 1929 ft | 136 kts | 348° |
| 2026-05-06 14:08 | 55.74201 | 37.38012 | 1986 ft | 149 kts | 348° |
| 2026-05-06 14:08 | 55.75259 | 37.37779 | 1991 ft | 157 kts | 349° |
| 2026-05-06 14:09 | 55.76365 | 37.37541 | 1997 ft | 163 kts | 349° |
| 2026-05-06 14:09 | 55.77488 | 37.37300 | 2000 ft | 166 kts | 349° |
| 2026-05-06 14:09 | 55.78652 | 37.37168 | 1998 ft | 172 kts | 0° |
| 2026-05-06 14:09 | 55.79819 | 37.37783 | 1996 ft | 178 kts | 22° |
| 2026-05-06 14:10 | 55.80948 | 37.38720 | 1987 ft | 178 kts | 11° |
| 2026-05-06 14:10 | 55.82161 | 37.39101 | 1986 ft | 176 kts | 7° |
| 2026-05-06 14:10 | 55.83345 | 37.39665 | 1986 ft | 179 kts | 22° |
| 2026-05-06 14:10 | 55.84515 | 37.40360 | 1985 ft | 176 kts | 8° |
| 2026-05-06 14:11 | 55.85692 | 37.40762 | 1997 ft | 174 kts | 7° |
| 2026-05-06 14:11 | 55.86893 | 37.41166 | 2000 ft | 176 kts | 7° |
| 2026-05-06 14:11 | 55.88100 | 37.41571 | 1997 ft | 177 kts | 8° |
| 2026-05-06 14:11 | 55.89137 | 37.42773 | 1988 ft | 187 kts | 48° |
| 2026-05-06 14:12 | 55.89569 | 37.44973 | 1990 ft | 191 kts | 80° |
| 2026-05-06 14:12 | 55.89519 | 37.47344 | 1989 ft | 192 kts | 97° |
| 2026-05-06 14:12 | 55.89706 | 37.49617 | 2084 ft | 183 kts | 65° |
| 2026-05-06 14:12 | 55.90120 | 37.51730 | 2222 ft | 178 kts | 63° |
| 2026-05-06 14:13 | 55.90578 | 37.53721 | 2374 ft | 176 kts | 73° |
| 2026-05-06 14:13 | 55.90809 | 37.55851 | 2514 ft | 174 kts | 76° |
| 2026-05-06 14:13 | 55.90903 | 37.57988 | 2660 ft | 174 kts | 96° |
| 2026-05-06 14:13 | 55.90607 | 37.60086 | 2814 ft | 175 kts | 104° |
| 2026-05-06 14:14 | 55.90291 | 37.62188 | 2962 ft | 175 kts | 104° |
| 2026-05-06 14:14 | 55.89977 | 37.64293 | 3105 ft | 177 kts | 104° |
| 2026-05-06 14:14 | 55.89660 | 37.66414 | 3251 ft | 177 kts | 104° |
| 2026-05-06 14:14 | 55.89459 | 37.68546 | 3395 ft | 177 kts | 92° |
| 2026-05-06 14:15 | 55.89160 | 37.70672 | 3531 ft | 180 kts | 118° |
| 2026-05-06 14:15 | 55.88394 | 37.72429 | 3684 ft | 180 kts | 135° |
| 2026-05-06 14:15 | 55.87533 | 37.74061 | 3835 ft | 181 kts | 135° |
| 2026-05-06 14:15 | 55.86673 | 37.75701 | 3974 ft | 182 kts | 135° |
| 2026-05-06 14:16 | 55.85789 | 37.77384 | 3982 ft | 189 kts | 135° |
| 2026-05-06 14:16 | 55.84878 | 37.79118 | 3984 ft | 193 kts | 135° |
| 2026-05-06 14:16 | 55.83962 | 37.80859 | 3985 ft | 196 kts | 135° |
| 2026-05-06 14:16 | 55.82974 | 37.82544 | 3972 ft | 197 kts | 147° |
| 2026-05-06 14:17 | 55.81724 | 37.83493 | 3966 ft | 194 kts | 172° |
| 2026-05-06 14:17 | 55.80390 | 37.83782 | 3969 ft | 193 kts | 178° |
| 2026-05-06 14:17 | 55.79053 | 37.84039 | 3968 ft | 192 kts | 179° |
| 2026-05-06 14:17 | 55.77722 | 37.84303 | 3967 ft | 192 kts | 178° |
| 2026-05-06 14:18 | 55.76410 | 37.84564 | 3968 ft | 192 kts | 178° |
| 2026-05-06 14:18 | 55.75083 | 37.84824 | 3968 ft | 192 kts | 178° |
| 2026-05-06 14:18 | 55.73755 | 37.85085 | 3968 ft | 192 kts | 178° |
| 2026-05-06 14:18 | 55.72426 | 37.85345 | 3968 ft | 192 kts | 178° |
| 2026-05-06 14:19 | 55.71095 | 37.85604 | 3970 ft | 192 kts | 178° |
| 2026-05-06 14:19 | 55.69761 | 37.85868 | 3963 ft | 193 kts | 178° |
| 2026-05-06 14:19 | 55.68444 | 37.86127 | 3967 ft | 193 kts | 178° |
| 2026-05-06 14:19 | 55.67105 | 37.86390 | 3968 ft | 193 kts | 177° |
| 2026-05-06 14:20 | 55.65771 | 37.86622 | 3965 ft | 191 kts | 182° |
| 2026-05-06 14:20 | 55.64486 | 37.86217 | 3965 ft | 186 kts | 204° |
| 2026-05-06 14:20 | 55.63363 | 37.85187 | 3961 ft | 184 kts | 213° |
| 2026-05-06 14:20 | 55.62105 | 37.84740 | 3964 ft | 192 kts | 176° |
| 2026-05-06 14:21 | 55.60876 | 37.85709 | 3953 ft | 197 kts | 149° |
| 2026-05-06 14:21 | 55.59726 | 37.87100 | 3852 ft | 202 kts | 148° |
| 2026-05-06 14:21 | 55.58541 | 37.88470 | 3753 ft | 204 kts | 150° |
| 2026-05-06 14:21 | 55.57344 | 37.89784 | 3656 ft | 205 kts | 150° |
| 2026-05-06 14:22 | 55.56123 | 37.91115 | 3556 ft | 206 kts | 151° |
| 2026-05-06 14:22 | 55.54908 | 37.92452 | 3454 ft | 206 kts | 150° |
| 2026-05-06 14:22 | 55.53690 | 37.93792 | 3353 ft | 207 kts | 150° |
| 2026-05-06 14:22 | 55.52469 | 37.95132 | 3233 ft | 207 kts | 150° |
| 2026-05-06 14:23 | 55.51243 | 37.96476 | 3109 ft | 207 kts | 150° |
| 2026-05-06 14:23 | 55.50022 | 37.97816 | 2987 ft | 206 kts | 150° |
| 2026-05-06 14:23 | 55.48800 | 37.99154 | 2862 ft | 207 kts | 150° |
| 2026-05-06 14:23 | 55.47574 | 38.00496 | 2737 ft | 207 kts | 150° |
| 2026-05-06 14:24 | 55.46347 | 38.01838 | 2614 ft | 208 kts | 150° |
| 2026-05-06 14:24 | 55.45121 | 38.03180 | 2490 ft | 207 kts | 150° |
| 2026-05-06 14:24 | 55.43913 | 38.04499 | 2367 ft | 207 kts | 151° |
| 2026-05-06 14:24 | 55.42628 | 38.05624 | 2233 ft | 204 kts | 171° |
| 2026-05-06 14:25 | 55.41269 | 38.05360 | 2096 ft | 196 kts | 209° |
| 2026-05-06 14:25 | 55.40038 | 38.04480 | 2244 ft | 184 kts | 201° |
| 2026-05-06 14:25 | 55.38816 | 38.04006 | 2384 ft | 180 kts | 194° |
| 2026-05-06 14:25 | 55.37560 | 38.03699 | 2301 ft | 187 kts | 192° |
| 2026-05-06 14:26 | 55.36254 | 38.03472 | 2255 ft | 190 kts | 185° |
| 2026-05-06 14:26 | 55.34967 | 38.04163 | 2143 ft | 201 kts | 147° |
| 2026-05-06 14:26 | 55.34145 | 38.06123 | 2029 ft | 204 kts | 108° |
| 2026-05-06 14:26 | 55.33935 | 38.08561 | 1997 ft | 200 kts | 86° |
| 2026-05-06 14:27 | 55.34395 | 38.10797 | 1986 ft | 194 kts | 57° |
| 2026-05-06 14:27 | 55.34630 | 38.13111 | 1983 ft | 196 kts | 96° |
| 2026-05-06 14:27 | 55.34023 | 38.15230 | 1981 ft | 197 kts | 135° |
| 2026-05-06 14:27 | 55.32842 | 38.16222 | 1979 ft | 191 kts | 177° |
| 2026-05-06 14:28 | 55.31616 | 38.15692 | 1981 ft | 178 kts | 218° |
| 2026-05-06 14:28 | 55.30969 | 38.14005 | 1980 ft | 165 kts | 261° |
| 2026-05-06 14:28 | 55.31045 | 38.12060 | 1983 ft | 158 kts | 282° |
| 2026-05-06 14:28 | 55.31249 | 38.10171 | 1982 ft | 157 kts | 282° |
| 2026-05-06 14:29 | 55.31454 | 38.08298 | 1982 ft | 156 kts | 283° |
| 2026-05-06 14:29 | 55.31658 | 38.06427 | 1988 ft | 156 kts | 282° |
| 2026-05-06 14:29 | 55.31865 | 38.04538 | 1992 ft | 159 kts | 283° |
| 2026-05-06 14:29 | 55.32074 | 38.02639 | 1990 ft | 162 kts | 283° |
| 2026-05-06 14:30 | 55.32374 | 38.00731 | 1991 ft | 162 kts | 292° |
| 2026-05-06 14:30 | 55.32882 | 37.98965 | 2001 ft | 159 kts | 301° |
| 2026-05-06 14:30 | 55.33530 | 37.97530 | 1892 ft | 145 kts | 314° |
| 2026-05-06 14:30 | 55.34014 | 37.96803 | 1763 ft | 130 kts | 321° |
| 2026-05-06 14:31 | 55.34947 | 37.95681 | 1397 ft | 120 kts | 327° |
| 2026-05-06 14:31 | 55.35626 | 37.94930 | 1124 ft | 110 kts | 327° |
| 2026-05-06 14:31 | 55.36228 | 37.94188 | 955 ft | 105 kts | 326° |
| 2026-05-06 14:31 | 55.36874 | 37.93474 | 925 ft | 113 kts | 333° |
| 2026-05-06 14:32 | 55.37307 | 37.92983 | 909 ft | 107 kts | 324° |
| 2026-05-06 14:32 | 55.37881 | 37.92243 | 783 ft | 103 kts | 324° |
| 2026-05-06 14:32 | 55.38555 | 37.91573 | 774 ft | 115 kts | 332° |
| 2026-05-06 14:32 | 55.39244 | 37.90668 | 655 ft | 131 kts | 323° |
| 2026-05-06 14:33 | 55.40013 | 37.89738 | 552 ft | 132 kts | 326° |
| 2026-05-06 14:33 | 55.40577 | 37.89053 | 547 ft | 65 kts | 323° |
| 2026-05-06 14:33 | 55.40982 | 37.88754 | 548 ft | 36 kts | 355° |
| 2026-05-06 14:33 | 55.41061 | 37.88741 | 547 ft | 0 kts | 353° |
| 2026-05-06 14:35 | 55.41065 | 37.88740 | 547 ft | 9 kts | 353° |
| 2026-05-06 14:35 | 55.41193 | 37.88698 | 547 ft | 24 kts | 321° |
| 2026-05-06 14:35 | 55.41333 | 37.88515 | 547 ft | 12 kts | 327° |
| 2026-05-06 14:35 | 55.41455 | 37.88372 | 547 ft | 17 kts | 333° |
| 2026-05-06 14:36 | 55.41516 | 37.88487 | 547 ft | 19 kts | 122° |
| 2026-05-06 14:36 | 55.41390 | 37.88622 | 547 ft | 33 kts | 141° |
| 2026-05-06 14:36 | 55.41149 | 37.88913 | 547 ft | 42 kts | 142° |
| 2026-05-06 14:36 | 55.41052 | 37.89031 | 547 ft | 0 kts | 146° |